sensor_id;sensor_type;location;lat;lon;timestamp;P1;durP1;ratioP1;P2;durP2;ratioP2
14592;SDS011;7383;52.354;9.756;2022-11-20T01:26:51;6.63;;;6.05;;
14592;SDS011;7383;52.354;9.756;2022-11-20T01:29:19;6.97;;;6.28;;
14592;SDS011;7383;52.354;9.756;2022-11-20T01:31:46;6.88;;;6.03;;
14592;SDS011;7383;52.354;9.756;2022-11-20T01:34:14;6.93;;;6.32;;
14592;SDS011;7383;52.354;9.756;2022-11-20T01:36:41;7.38;;;6.68;;
14592;SDS011;7383;52.354;9.756;2022-11-20T01:39:11;7.60;;;6.90;;
14592;SDS011;7383;52.354;9.756;2022-11-20T01:41:39;7.68;;;6.97;;
14592;SDS011;7383;52.354;9.756;2022-11-20T01:47:20;7.18;;;6.47;;
14592;SDS011;7383;52.354;9.756;2022-11-20T01:49:52;7.32;;;6.63;;
14592;SDS011;7383;52.354;9.756;2022-11-20T01:52:23;7.35;;;6.65;;
14592;SDS011;7383;52.354;9.756;2022-11-20T01:54:54;7.38;;;6.65;;
14592;SDS011;7383;52.354;9.756;2022-11-20T01:57:25;7.13;;;6.43;;
14592;SDS011;7383;52.354;9.756;2022-11-20T01:59:59;7.38;;;6.68;;
14592;SDS011;7383;52.354;9.756;2022-11-20T02:02:27;6.28;;;5.68;;
14592;SDS011;7383;52.354;9.756;2022-11-20T02:04:55;7.30;;;6.60;;
14592;SDS011;7383;52.354;9.756;2022-11-20T02:07:30;7.45;;;6.70;;
14592;SDS011;7383;52.354;9.756;2022-11-20T02:09:57;7.28;;;6.57;;
14592;SDS011;7383;52.354;9.756;2022-11-20T02:12:23;7.60;;;6.90;;
14592;SDS011;7383;52.354;9.756;2022-11-20T02:15:23;7.30;;;6.60;;
14592;SDS011;7383;52.354;9.756;2022-11-20T02:17:50;6.90;;;6.20;;
14592;SDS011;7383;52.354;9.756;2022-11-20T02:20:17;7.18;;;6.55;;
14592;SDS011;7383;52.354;9.756;2022-11-20T02:22:45;6.88;;;6.18;;
14592;SDS011;7383;52.354;9.756;2022-11-20T02:25:19;7.10;;;6.40;;
14592;SDS011;7383;52.354;9.756;2022-11-20T02:27:47;7.05;;;6.35;;
14592;SDS011;7383;52.354;9.756;2022-11-20T02:30:14;7.68;;;6.85;;
14592;SDS011;7383;52.354;9.756;2022-11-20T02:32:40;6.75;;;6.15;;
14592;SDS011;7383;52.354;9.756;2022-11-20T02:35:08;7.25;;;6.55;;
14592;SDS011;7383;52.354;9.756;2022-11-20T02:37:37;7.20;;;6.50;;
14592;SDS011;7383;52.354;9.756;2022-11-20T02:40:06;6.93;;;6.22;;
14592;SDS011;7383;52.354;9.756;2022-11-20T02:42:35;6.90;;;6.35;;
14592;SDS011;7383;52.354;9.756;2022-11-20T02:45:02;6.38;;;5.88;;
14592;SDS011;7383;52.354;9.756;2022-11-20T02:47:29;6.43;;;5.93;;
14592;SDS011;7383;52.354;9.756;2022-11-20T02:49:55;6.72;;;6.05;;
14592;SDS011;7383;52.354;9.756;2022-11-20T02:52:22;6.18;;;5.68;;
14592;SDS011;7383;52.354;9.756;2022-11-20T02:54:49;5.22;;;4.82;;
14592;SDS011;7383;52.354;9.756;2022-11-20T02:57:15;6.50;;;5.90;;
14592;SDS011;7383;52.354;9.756;2022-11-20T02:59:43;6.25;;;5.75;;
14592;SDS011;7383;52.354;9.756;2022-11-20T03:02:10;6.10;;;5.60;;
14592;SDS011;7383;52.354;9.756;2022-11-20T03:04:37;6.53;;;5.93;;
14592;SDS011;7383;52.354;9.756;2022-11-20T03:07:04;6.60;;;6.00;;
14592;SDS011;7383;52.354;9.756;2022-11-20T03:09:30;6.53;;;5.90;;
14592;SDS011;7383;52.354;9.756;2022-11-20T03:11:59;6.00;;;5.50;;
14592;SDS011;7383;52.354;9.756;2022-11-20T03:14:26;6.40;;;5.80;;
14592;SDS011;7383;52.354;9.756;2022-11-20T03:16:55;7.45;;;6.60;;
14592;SDS011;7383;52.354;9.756;2022-11-20T03:19:21;6.78;;;6.00;;
14592;SDS011;7383;52.354;9.756;2022-11-20T03:21:48;6.40;;;5.80;;
14592;SDS011;7383;52.354;9.756;2022-11-20T03:24:15;6.22;;;5.70;;
14592;SDS011;7383;52.354;9.756;2022-11-20T03:26:41;6.22;;;5.65;;
14592;SDS011;7383;52.354;9.756;2022-11-20T03:29:08;5.97;;;5.47;;
14592;SDS011;7383;52.354;9.756;2022-11-20T03:31:35;6.55;;;5.95;;
14592;SDS011;7383;52.354;9.756;2022-11-20T03:34:06;6.63;;;6.03;;
14592;SDS011;7383;52.354;9.756;2022-11-20T03:36:34;6.35;;;5.75;;
14592;SDS011;7383;52.354;9.756;2022-11-20T03:39:00;6.80;;;6.20;;
14592;SDS011;7383;52.354;9.756;2022-11-20T03:41:28;6.80;;;6.20;;
14592;SDS011;7383;52.354;9.756;2022-11-20T03:43:56;6.90;;;6.20;;
14592;SDS011;7383;52.354;9.756;2022-11-20T03:46:24;6.68;;;6.07;;
14592;SDS011;7383;52.354;9.756;2022-11-20T03:48:51;6.47;;;5.90;;
14592;SDS011;7383;52.354;9.756;2022-11-20T03:51:20;6.55;;;5.95;;
14592;SDS011;7383;52.354;9.756;2022-11-20T03:53:49;6.53;;;6.03;;
14592;SDS011;7383;52.354;9.756;2022-11-20T03:56:18;7.20;;;6.38;;
14592;SDS011;7383;52.354;9.756;2022-11-20T03:58:46;5.95;;;5.40;;
14592;SDS011;7383;52.354;9.756;2022-11-20T04:01:13;7.45;;;6.75;;
14592;SDS011;7383;52.354;9.756;2022-11-20T04:03:41;6.10;;;5.50;;
14592;SDS011;7383;52.354;9.756;2022-11-20T04:06:10;6.43;;;5.88;;
14592;SDS011;7383;52.354;9.756;2022-11-20T04:08:40;6.00;;;5.50;;
14592;SDS011;7383;52.354;9.756;2022-11-20T04:11:08;7.10;;;6.45;;
14592;SDS011;7383;52.354;9.756;2022-11-20T04:13:35;6.15;;;5.65;;
14592;SDS011;7383;52.354;9.756;2022-11-20T04:16:03;7.05;;;6.35;;
14592;SDS011;7383;52.354;9.756;2022-11-20T04:18:30;6.60;;;6.00;;
14592;SDS011;7383;52.354;9.756;2022-11-20T04:20:56;6.93;;;6.32;;
14592;SDS011;7383;52.354;9.756;2022-11-20T04:23:23;7.05;;;6.43;;
14592;SDS011;7383;52.354;9.756;2022-11-20T04:25:51;6.90;;;6.30;;
14592;SDS011;7383;52.354;9.756;2022-11-20T04:28:18;5.97;;;5.43;;
14592;SDS011;7383;52.354;9.756;2022-11-20T04:30:45;6.65;;;6.05;;
14592;SDS011;7383;52.354;9.756;2022-11-20T04:33:12;6.75;;;6.15;;
14592;SDS011;7383;52.354;9.756;2022-11-20T04:35:38;6.30;;;5.70;;
14592;SDS011;7383;52.354;9.756;2022-11-20T04:38:05;6.80;;;6.10;;
14592;SDS011;7383;52.354;9.756;2022-11-20T04:40:31;6.95;;;6.25;;
14592;SDS011;7383;52.354;9.756;2022-11-20T04:42:59;6.80;;;6.10;;
14592;SDS011;7383;52.354;9.756;2022-11-20T04:45:26;6.57;;;5.95;;
14592;SDS011;7383;52.354;9.756;2022-11-20T04:47:53;6.97;;;6.30;;
14592;SDS011;7383;52.354;9.756;2022-11-20T04:50:19;6.72;;;6.13;;
14592;SDS011;7383;52.354;9.756;2022-11-20T04:52:46;6.50;;;5.90;;
14592;SDS011;7383;52.354;9.756;2022-11-20T04:55:12;6.45;;;5.85;;
14592;SDS011;7383;52.354;9.756;2022-11-20T04:57:39;6.60;;;6.03;;
14592;SDS011;7383;52.354;9.756;2022-11-20T05:00:07;5.88;;;5.43;;
14592;SDS011;7383;52.354;9.756;2022-11-20T05:02:35;5.90;;;5.35;;
14592;SDS011;7383;52.354;9.756;2022-11-20T05:05:01;6.25;;;5.65;;
14592;SDS011;7383;52.354;9.756;2022-11-20T05:07:28;6.47;;;5.88;;
14592;SDS011;7383;52.354;9.756;2022-11-20T05:09:54;6.10;;;5.60;;
14592;SDS011;7383;52.354;9.756;2022-11-20T05:12:21;6.43;;;5.90;;
14592;SDS011;7383;52.354;9.756;2022-11-20T05:14:47;6.50;;;5.82;;
14592;SDS011;7383;52.354;9.756;2022-11-20T05:17:15;6.68;;;6.05;;
14592;SDS011;7383;52.354;9.756;2022-11-20T05:19:42;6.70;;;6.10;;
14592;SDS011;7383;52.354;9.756;2022-11-20T05:22:09;6.80;;;6.20;;
14592;SDS011;7383;52.354;9.756;2022-11-20T05:24:35;5.97;;;5.47;;
14592;SDS011;7383;52.354;9.756;2022-11-20T05:27:02;5.78;;;5.18;;
14592;SDS011;7383;52.354;9.756;2022-11-20T05:29:29;6.97;;;6.30;;
14592;SDS011;7383;52.354;9.756;2022-11-20T05:31:55;6.53;;;5.93;;
14592;SDS011;7383;52.354;9.756;2022-11-20T05:34:23;6.88;;;6.18;;
14592;SDS011;7383;52.354;9.756;2022-11-20T05:36:50;6.75;;;6.15;;
14592;SDS011;7383;52.354;9.756;2022-11-20T05:39:17;7.07;;;5.75;;
14592;SDS011;7383;52.354;9.756;2022-11-20T05:41:43;6.47;;;5.93;;
14592;SDS011;7383;52.354;9.756;2022-11-20T05:44:10;6.45;;;5.85;;
14592;SDS011;7383;52.354;9.756;2022-11-20T05:46:37;6.70;;;6.10;;
14592;SDS011;7383;52.354;9.756;2022-11-20T05:49:04;6.90;;;6.30;;
14592;SDS011;7383;52.354;9.756;2022-11-20T05:51:32;6.18;;;5.68;;
14592;SDS011;7383;52.354;9.756;2022-11-20T05:54:00;6.00;;;5.60;;
14592;SDS011;7383;52.354;9.756;2022-11-20T05:56:27;6.43;;;5.80;;
14592;SDS011;7383;52.354;9.756;2022-11-20T05:58:53;6.00;;;5.40;;
14592;SDS011;7383;52.354;9.756;2022-11-20T06:01:21;6.00;;;5.50;;
14592;SDS011;7383;52.354;9.756;2022-11-20T06:03:49;5.93;;;5.40;;
14592;SDS011;7383;52.354;9.756;2022-11-20T06:06:16;6.35;;;5.75;;
14592;SDS011;7383;52.354;9.756;2022-11-20T06:08:45;6.15;;;5.65;;
14592;SDS011;7383;52.354;9.756;2022-11-20T06:11:12;6.40;;;5.80;;
14592;SDS011;7383;52.354;9.756;2022-11-20T06:13:40;5.82;;;5.30;;
14592;SDS011;7383;52.354;9.756;2022-11-20T06:16:08;6.18;;;5.68;;
14592;SDS011;7383;52.354;9.756;2022-11-20T06:18:35;7.10;;;6.25;;
14592;SDS011;7383;52.354;9.756;2022-11-20T06:21:02;6.65;;;6.05;;
14592;SDS011;7383;52.354;9.756;2022-11-20T06:23:31;6.38;;;5.78;;
14592;SDS011;7383;52.354;9.756;2022-11-20T06:26:02;6.55;;;5.95;;
14592;SDS011;7383;52.354;9.756;2022-11-20T06:28:29;6.18;;;5.57;;
14592;SDS011;7383;52.354;9.756;2022-11-20T06:30:56;5.85;;;5.25;;
14592;SDS011;7383;52.354;9.756;2022-11-20T06:33:23;6.28;;;5.68;;
14592;SDS011;7383;52.354;9.756;2022-11-20T06:35:49;6.07;;;5.47;;
14592;SDS011;7383;52.354;9.756;2022-11-20T06:38:16;6.25;;;5.75;;
14592;SDS011;7383;52.354;9.756;2022-11-20T06:40:46;6.30;;;5.70;;
14592;SDS011;7383;52.354;9.756;2022-11-20T06:43:14;6.05;;;5.55;;
14592;SDS011;7383;52.354;9.756;2022-11-20T06:45:41;6.93;;;6.32;;
14592;SDS011;7383;52.354;9.756;2022-11-20T06:48:08;6.10;;;5.60;;
14592;SDS011;7383;52.354;9.756;2022-11-20T06:50:36;5.85;;;5.35;;
14592;SDS011;7383;52.354;9.756;2022-11-20T06:53:03;6.22;;;5.63;;
14592;SDS011;7383;52.354;9.756;2022-11-20T06:55:31;6.50;;;6.00;;
14592;SDS011;7383;52.354;9.756;2022-11-20T06:57:58;6.72;;;6.13;;
14592;SDS011;7383;52.354;9.756;2022-11-20T07:00:26;6.38;;;5.78;;
14592;SDS011;7383;52.354;9.756;2022-11-20T07:02:52;7.07;;;6.38;;
14592;SDS011;7383;52.354;9.756;2022-11-20T07:05:20;6.20;;;5.60;;
14592;SDS011;7383;52.354;9.756;2022-11-20T07:07:46;6.55;;;5.97;;
14592;SDS011;7383;52.354;9.756;2022-11-20T07:10:13;7.43;;;6.70;;
14592;SDS011;7383;52.354;9.756;2022-11-20T07:12:41;6.90;;;6.30;;
14592;SDS011;7383;52.354;9.756;2022-11-20T07:15:08;6.78;;;6.18;;
14592;SDS011;7383;52.354;9.756;2022-11-20T07:17:36;7.45;;;6.75;;
14592;SDS011;7383;52.354;9.756;2022-11-20T07:20:03;6.40;;;5.80;;
14592;SDS011;7383;52.354;9.756;2022-11-20T07:22:30;6.97;;;6.30;;
14592;SDS011;7383;52.354;9.756;2022-11-20T07:24:57;7.13;;;6.53;;
14592;SDS011;7383;52.354;9.756;2022-11-20T07:27:23;6.85;;;6.15;;
14592;SDS011;7383;52.354;9.756;2022-11-20T07:29:50;6.90;;;6.30;;
14592;SDS011;7383;52.354;9.756;2022-11-20T07:32:16;6.45;;;5.85;;
14592;SDS011;7383;52.354;9.756;2022-11-20T07:34:44;6.25;;;5.65;;
14592;SDS011;7383;52.354;9.756;2022-11-20T07:37:11;6.93;;;6.22;;
14592;SDS011;7383;52.354;9.756;2022-11-20T07:39:38;6.90;;;6.30;;
14592;SDS011;7383;52.354;9.756;2022-11-20T07:42:05;6.32;;;5.72;;
14592;SDS011;7383;52.354;9.756;2022-11-20T07:44:32;7.70;;;7.00;;
14592;SDS011;7383;52.354;9.756;2022-11-20T07:46:59;7.30;;;6.60;;
14592;SDS011;7383;52.354;9.756;2022-11-20T07:49:25;6.03;;;5.53;;
14592;SDS011;7383;52.354;9.756;2022-11-20T07:51:53;6.10;;;5.60;;
14592;SDS011;7383;52.354;9.756;2022-11-20T07:54:20;6.50;;;5.90;;
14592;SDS011;7383;52.354;9.756;2022-11-20T07:56:47;6.45;;;5.85;;
14592;SDS011;7383;52.354;9.756;2022-11-20T07:59:14;6.88;;;6.28;;
14592;SDS011;7383;52.354;9.756;2022-11-20T08:01:41;7.95;;;7.25;;
14592;SDS011;7383;52.354;9.756;2022-11-20T08:04:08;6.90;;;6.30;;
14592;SDS011;7383;52.354;9.756;2022-11-20T08:06:35;7.43;;;6.72;;
14592;SDS011;7383;52.354;9.756;2022-11-20T08:09:04;7.47;;;6.78;;
14592;SDS011;7383;52.354;9.756;2022-11-20T08:11:30;6.43;;;5.85;;
14592;SDS011;7383;52.354;9.756;2022-11-20T08:14:14;7.00;;;6.40;;
14592;SDS011;7383;52.354;9.756;2022-11-20T08:16:41;6.75;;;6.15;;
14592;SDS011;7383;52.354;9.756;2022-11-20T08:19:09;7.63;;;6.93;;
14592;SDS011;7383;52.354;9.756;2022-11-20T08:21:36;7.90;;;7.10;;
14592;SDS011;7383;52.354;9.756;2022-11-20T08:24:04;7.38;;;6.68;;
14592;SDS011;7383;52.354;9.756;2022-11-20T08:26:32;6.97;;;6.25;;
14592;SDS011;7383;52.354;9.756;2022-11-20T08:28:58;7.57;;;6.78;;
14592;SDS011;7383;52.354;9.756;2022-11-20T08:31:25;7.05;;;6.40;;
14592;SDS011;7383;52.354;9.756;2022-11-20T08:33:53;7.60;;;6.90;;
14592;SDS011;7383;52.354;9.756;2022-11-20T08:36:20;6.90;;;6.30;;
14592;SDS011;7383;52.354;9.756;2022-11-20T08:38:47;7.03;;;6.43;;
14592;SDS011;7383;52.354;9.756;2022-11-20T08:41:15;7.60;;;6.90;;
14592;SDS011;7383;52.354;9.756;2022-11-20T08:43:52;8.10;;;7.30;;
14592;SDS011;7383;52.354;9.756;2022-11-20T08:46:21;7.50;;;6.65;;
14592;SDS011;7383;52.354;9.756;2022-11-20T08:48:48;7.97;;;7.25;;
14592;SDS011;7383;52.354;9.756;2022-11-20T08:51:14;8.35;;;7.25;;
14592;SDS011;7383;52.354;9.756;2022-11-20T08:53:41;8.07;;;7.38;;
14592;SDS011;7383;52.354;9.756;2022-11-20T08:56:08;7.75;;;6.78;;
14592;SDS011;7383;52.354;9.756;2022-11-20T08:58:37;7.47;;;6.78;;
14592;SDS011;7383;52.354;9.756;2022-11-20T09:01:04;7.65;;;6.85;;
14592;SDS011;7383;52.354;9.756;2022-11-20T09:03:31;7.60;;;6.90;;
14592;SDS011;7383;52.354;9.756;2022-11-20T09:05:58;7.68;;;6.97;;
14592;SDS011;7383;52.354;9.756;2022-11-20T09:08:25;8.15;;;7.40;;
14592;SDS011;7383;52.354;9.756;2022-11-20T09:10:52;7.32;;;6.72;;
14592;SDS011;7383;52.354;9.756;2022-11-20T09:13:19;6.78;;;6.18;;
14592;SDS011;7383;52.354;9.756;2022-11-20T09:15:47;7.00;;;6.40;;
14592;SDS011;7383;52.354;9.756;2022-11-20T09:18:13;7.10;;;6.40;;
14592;SDS011;7383;52.354;9.756;2022-11-20T09:20:40;7.60;;;6.90;;
14592;SDS011;7383;52.354;9.756;2022-11-20T09:23:06;7.22;;;6.53;;
14592;SDS011;7383;52.354;9.756;2022-11-20T09:25:33;7.63;;;7.00;;
14592;SDS011;7383;52.354;9.756;2022-11-20T09:27:59;7.65;;;7.00;;
14592;SDS011;7383;52.354;9.756;2022-11-20T09:30:26;7.43;;;6.70;;
14592;SDS011;7383;52.354;9.756;2022-11-20T09:32:55;7.18;;;6.47;;
14592;SDS011;7383;52.354;9.756;2022-11-20T09:35:21;7.97;;;7.18;;
14592;SDS011;7383;52.354;9.756;2022-11-20T09:37:48;7.30;;;6.60;;
14592;SDS011;7383;52.354;9.756;2022-11-20T09:40:17;6.80;;;6.10;;
14592;SDS011;7383;52.354;9.756;2022-11-20T09:42:47;7.78;;;7.05;;
14592;SDS011;7383;52.354;9.756;2022-11-20T09:45:21;6.60;;;5.95;;
14592;SDS011;7383;52.354;9.756;2022-11-20T09:48:01;6.85;;;6.25;;
14592;SDS011;7383;52.354;9.756;2022-11-20T09:50:45;6.13;;;5.53;;
14592;SDS011;7383;52.354;9.756;2022-11-20T09:53:20;5.93;;;5.35;;
14592;SDS011;7383;52.354;9.756;2022-11-20T09:55:56;6.40;;;5.80;;
14592;SDS011;7383;52.354;9.756;2022-11-20T09:58:25;6.03;;;5.53;;
14592;SDS011;7383;52.354;9.756;2022-11-20T10:00:58;6.70;;;6.10;;
14592;SDS011;7383;52.354;9.756;2022-11-20T10:03:33;6.30;;;5.80;;
14592;SDS011;7383;52.354;9.756;2022-11-20T10:06:11;5.93;;;5.38;;
14592;SDS011;7383;52.354;9.756;2022-11-20T10:08:42;5.45;;;5.03;;
14592;SDS011;7383;52.354;9.756;2022-11-20T10:11:13;5.72;;;5.22;;
14592;SDS011;7383;52.354;9.756;2022-11-20T10:13:49;5.82;;;5.32;;
14592;SDS011;7383;52.354;9.756;2022-11-20T10:16:27;6.35;;;5.75;;
14592;SDS011;7383;52.354;9.756;2022-11-20T10:19:06;6.30;;;5.70;;
14592;SDS011;7383;52.354;9.756;2022-11-20T10:21:48;5.80;;;5.30;;
14592;SDS011;7383;52.354;9.756;2022-11-20T10:24:26;5.70;;;5.28;;
14592;SDS011;7383;52.354;9.756;2022-11-20T10:27:05;6.07;;;5.57;;
14592;SDS011;7383;52.354;9.756;2022-11-20T10:29:42;6.97;;;6.38;;
14592;SDS011;7383;52.354;9.756;2022-11-20T10:32:14;6.00;;;5.50;;
14592;SDS011;7383;52.354;9.756;2022-11-20T10:34:46;5.60;;;5.10;;
14592;SDS011;7383;52.354;9.756;2022-11-20T10:37:18;6.43;;;5.83;;
14592;SDS011;7383;52.354;9.756;2022-11-20T10:39:50;6.55;;;5.85;;
14592;SDS011;7383;52.354;9.756;2022-11-20T10:42:25;6.75;;;6.15;;
14592;SDS011;7383;52.354;9.756;2022-11-20T10:44:58;6.45;;;5.80;;
14592;SDS011;7383;52.354;9.756;2022-11-20T10:47:30;6.03;;;5.50;;
14592;SDS011;7383;52.354;9.756;2022-11-20T10:50:01;5.70;;;5.20;;
14592;SDS011;7383;52.354;9.756;2022-11-20T10:52:32;5.38;;;4.88;;
14592;SDS011;7383;52.354;9.756;2022-11-20T10:55:10;5.30;;;4.90;;
14592;SDS011;7383;52.354;9.756;2022-11-20T10:57:49;5.55;;;4.55;;
14592;SDS011;7383;52.354;9.756;2022-11-20T11:00:19;5.07;;;4.68;;
14592;SDS011;7383;52.354;9.756;2022-11-20T11:02:47;5.25;;;4.85;;
14592;SDS011;7383;52.354;9.756;2022-11-20T11:05:21;6.70;;;6.10;;
14592;SDS011;7383;52.354;9.756;2022-11-20T11:07:56;5.88;;;5.38;;
14592;SDS011;7383;52.354;9.756;2022-11-20T11:10:26;6.05;;;5.45;;
14592;SDS011;7383;52.354;9.756;2022-11-20T11:12:58;5.05;;;4.65;;
14592;SDS011;7383;52.354;9.756;2022-11-20T11:15:26;4.68;;;4.32;;
14592;SDS011;7383;52.354;9.756;2022-11-20T11:17:54;4.72;;;4.32;;
14592;SDS011;7383;52.354;9.756;2022-11-20T11:20:23;4.73;;;4.33;;
14592;SDS011;7383;52.354;9.756;2022-11-20T11:22:51;5.22;;;4.82;;
14592;SDS011;7383;52.354;9.756;2022-11-20T11:25:24;4.35;;;4.05;;
14592;SDS011;7383;52.354;9.756;2022-11-20T11:27:54;4.40;;;4.10;;
14592;SDS011;7383;52.354;9.756;2022-11-20T11:30:22;4.40;;;4.05;;
14592;SDS011;7383;52.354;9.756;2022-11-20T11:32:50;4.22;;;3.92;;
14592;SDS011;7383;52.354;9.756;2022-11-20T11:35:25;4.60;;;4.20;;
14592;SDS011;7383;52.354;9.756;2022-11-20T11:37:54;5.00;;;4.60;;
14592;SDS011;7383;52.354;9.756;2022-11-20T11:40:28;4.80;;;4.40;;
14592;SDS011;7383;52.354;9.756;2022-11-20T11:42:58;5.25;;;4.85;;
14592;SDS011;7383;52.354;9.756;2022-11-20T11:45:27;5.22;;;4.82;;
14592;SDS011;7383;52.354;9.756;2022-11-20T11:47:53;5.25;;;4.85;;
14592;SDS011;7383;52.354;9.756;2022-11-20T11:50:24;5.45;;;4.95;;
14592;SDS011;7383;52.354;9.756;2022-11-20T11:52:56;5.47;;;4.97;;
14592;SDS011;7383;52.354;9.756;2022-11-20T11:55:31;5.40;;;4.90;;
14592;SDS011;7383;52.354;9.756;2022-11-20T12:00:56;5.72;;;5.22;;
14592;SDS011;7383;52.354;9.756;2022-11-20T12:03:27;5.30;;;4.80;;
14592;SDS011;7383;52.354;9.756;2022-11-20T12:06:01;5.00;;;4.50;;
14592;SDS011;7383;52.354;9.756;2022-11-20T12:08:36;4.82;;;4.43;;
14592;SDS011;7383;52.354;9.756;2022-11-20T12:11:11;5.00;;;4.60;;
14592;SDS011;7383;52.354;9.756;2022-11-20T12:13:44;4.78;;;4.38;;
14592;SDS011;7383;52.354;9.756;2022-11-20T12:16:18;5.00;;;4.60;;
14592;SDS011;7383;52.354;9.756;2022-11-20T12:18:47;4.78;;;4.38;;
14592;SDS011;7383;52.354;9.756;2022-11-20T12:21:20;4.68;;;4.35;;
14592;SDS011;7383;52.354;9.756;2022-11-20T12:24:04;4.63;;;4.25;;
14592;SDS011;7383;52.354;9.756;2022-11-20T12:26:45;4.97;;;4.57;;
14592;SDS011;7383;52.354;9.756;2022-11-20T12:29:26;5.28;;;4.78;;
14592;SDS011;7383;52.354;9.756;2022-11-20T12:32:06;5.05;;;4.65;;
14592;SDS011;7383;52.354;9.756;2022-11-20T12:34:52;5.63;;;5.05;;
14592;SDS011;7383;52.354;9.756;2022-11-20T12:37:33;5.63;;;5.22;;
14592;SDS011;7383;52.354;9.756;2022-11-20T12:40:11;5.72;;;5.22;;
14592;SDS011;7383;52.354;9.756;2022-11-20T12:42:48;7.85;;;7.20;;
14592;SDS011;7383;52.354;9.756;2022-11-20T12:45:54;6.53;;;5.93;;
14592;SDS011;7383;52.354;9.756;2022-11-20T12:51:30;5.60;;;5.10;;
14592;SDS011;7383;52.354;9.756;2022-11-20T12:54:11;5.25;;;4.85;;
14592;SDS011;7383;52.354;9.756;2022-11-20T12:56:58;5.68;;;5.20;;
14592;SDS011;7383;52.354;9.756;2022-11-20T12:59:46;5.40;;;4.90;;
14592;SDS011;7383;52.354;9.756;2022-11-20T13:02:26;5.70;;;5.13;;
14592;SDS011;7383;52.354;9.756;2022-11-20T13:05:15;6.15;;;5.60;;
14592;SDS011;7383;52.354;9.756;2022-11-20T13:07:46;5.75;;;5.25;;
14592;SDS011;7383;52.354;9.756;2022-11-20T13:10:16;5.93;;;5.10;;
14592;SDS011;7383;52.354;9.756;2022-11-20T13:12:49;5.50;;;5.10;;
14592;SDS011;7383;52.354;9.756;2022-11-20T13:15:26;6.30;;;5.70;;
14592;SDS011;7383;52.354;9.756;2022-11-20T13:18:02;5.72;;;5.22;;
14592;SDS011;7383;52.354;9.756;2022-11-20T13:20:31;6.47;;;5.85;;
14592;SDS011;7383;52.354;9.756;2022-11-20T13:23:01;6.05;;;5.55;;
14592;SDS011;7383;52.354;9.756;2022-11-20T13:28:04;6.60;;;6.00;;
14592;SDS011;7383;52.354;9.756;2022-11-20T13:52:58;5.97;;;5.47;;
14592;SDS011;7383;52.354;9.756;2022-11-20T13:55:36;6.10;;;5.50;;
14592;SDS011;7383;52.354;9.756;2022-11-20T13:58:20;7.07;;;6.38;;
14592;SDS011;7383;52.354;9.756;2022-11-20T14:01:08;7.07;;;6.07;;
14592;SDS011;7383;52.354;9.756;2022-11-20T14:03:37;7.00;;;6.32;;
14592;SDS011;7383;52.354;9.756;2022-11-20T14:06:05;6.45;;;5.75;;
14592;SDS011;7383;52.354;9.756;2022-11-20T14:08:41;6.80;;;6.15;;
14592;SDS011;7383;52.354;9.756;2022-11-20T14:11:13;6.43;;;5.82;;
14592;SDS011;7383;52.354;9.756;2022-11-20T14:13:54;7.40;;;6.70;;
14592;SDS011;7383;52.354;9.756;2022-11-20T14:16:23;6.20;;;5.60;;
14592;SDS011;7383;52.354;9.756;2022-11-20T14:18:50;7.88;;;7.07;;
14592;SDS011;7383;52.354;9.756;2022-11-20T14:21:23;7.07;;;6.38;;
14592;SDS011;7383;52.354;9.756;2022-11-20T14:24:04;7.07;;;6.38;;
14592;SDS011;7383;52.354;9.756;2022-11-20T14:26:31;6.57;;;6.00;;
14592;SDS011;7383;52.354;9.756;2022-11-20T14:28:58;7.15;;;6.53;;
14592;SDS011;7383;52.354;9.756;2022-11-20T14:31:26;7.68;;;6.97;;
14592;SDS011;7383;52.354;9.756;2022-11-20T14:33:53;7.72;;;7.00;;
14592;SDS011;7383;52.354;9.756;2022-11-20T14:36:21;7.75;;;7.05;;
14592;SDS011;7383;52.354;9.756;2022-11-20T14:38:51;7.45;;;6.75;;
14592;SDS011;7383;52.354;9.756;2022-11-20T14:41:21;9.20;;;8.40;;
14592;SDS011;7383;52.354;9.756;2022-11-20T14:43:50;8.48;;;7.03;;
14592;SDS011;7383;52.354;9.756;2022-11-20T14:46:19;7.90;;;7.10;;
14592;SDS011;7383;52.354;9.756;2022-11-20T14:48:46;7.70;;;7.05;;
14592;SDS011;7383;52.354;9.756;2022-11-20T14:51:28;7.22;;;6.63;;
14592;SDS011;7383;52.354;9.756;2022-11-20T14:54:07;7.82;;;7.05;;
14592;SDS011;7383;52.354;9.756;2022-11-20T14:56:36;7.57;;;6.88;;
14592;SDS011;7383;52.354;9.756;2022-11-20T14:59:03;8.88;;;8.00;;
14592;SDS011;7383;52.354;9.756;2022-11-20T15:01:30;7.40;;;6.70;;
14592;SDS011;7383;52.354;9.756;2022-11-20T15:04:04;7.47;;;6.78;;
14592;SDS011;7383;52.354;9.756;2022-11-20T15:06:32;6.80;;;6.18;;
14592;SDS011;7383;52.354;9.756;2022-11-20T15:08:59;9.35;;;7.10;;
14592;SDS011;7383;52.354;9.756;2022-11-20T15:11:27;7.13;;;6.45;;
14592;SDS011;7383;52.354;9.756;2022-11-20T15:13:59;7.30;;;6.60;;
14592;SDS011;7383;52.354;9.756;2022-11-20T15:16:29;7.07;;;6.38;;
14592;SDS011;7383;52.354;9.756;2022-11-20T15:18:56;6.55;;;5.95;;
14592;SDS011;7383;52.354;9.756;2022-11-20T15:21:22;7.45;;;6.72;;
14592;SDS011;7383;52.354;9.756;2022-11-20T15:23:49;6.65;;;6.00;;
14592;SDS011;7383;52.354;9.756;2022-11-20T15:26:23;7.30;;;6.60;;
14592;SDS011;7383;52.354;9.756;2022-11-20T15:28:52;7.70;;;6.60;;
14592;SDS011;7383;52.354;9.756;2022-11-20T15:31:21;6.78;;;6.10;;
14592;SDS011;7383;52.354;9.756;2022-11-20T15:33:49;7.57;;;6.90;;
14592;SDS011;7383;52.354;9.756;2022-11-20T15:36:16;7.22;;;6.55;;
14592;SDS011;7383;52.354;9.756;2022-11-20T15:38:43;6.63;;;6.03;;
14592;SDS011;7383;52.354;9.756;2022-11-20T15:41:09;6.90;;;6.20;;
14592;SDS011;7383;52.354;9.756;2022-11-20T15:43:36;7.80;;;7.00;;
14592;SDS011;7383;52.354;9.756;2022-11-20T15:46:04;7.88;;;7.07;;
14592;SDS011;7383;52.354;9.756;2022-11-20T15:48:36;7.63;;;6.90;;
14592;SDS011;7383;52.354;9.756;2022-11-20T15:51:06;7.50;;;6.80;;
14592;SDS011;7383;52.354;9.756;2022-11-20T15:53:39;8.07;;;7.28;;
14592;SDS011;7383;52.354;9.756;2022-11-20T15:56:08;7.80;;;7.00;;
14592;SDS011;7383;52.354;9.756;2022-11-20T15:58:38;8.63;;;7.82;;
14592;SDS011;7383;52.354;9.756;2022-11-20T16:01:04;8.70;;;7.90;;
14592;SDS011;7383;52.354;9.756;2022-11-20T16:03:31;8.18;;;7.38;;
14592;SDS011;7383;52.354;9.756;2022-11-20T16:06:02;7.45;;;6.75;;
14592;SDS011;7383;52.354;9.756;2022-11-20T16:08:29;7.90;;;7.20;;
14592;SDS011;7383;52.354;9.756;2022-11-20T16:10:57;8.23;;;7.43;;
14592;SDS011;7383;52.354;9.756;2022-11-20T16:13:24;7.65;;;6.95;;
14592;SDS011;7383;52.354;9.756;2022-11-20T16:16:11;7.90;;;6.65;;
14592;SDS011;7383;52.354;9.756;2022-11-20T16:18:55;7.47;;;6.78;;
14592;SDS011;7383;52.354;9.756;2022-11-20T16:21:34;9.98;;;9.07;;
14592;SDS011;7383;52.354;9.756;2022-11-20T16:24:03;8.75;;;7.93;;
14592;SDS011;7383;52.354;9.756;2022-11-20T16:26:31;7.97;;;7.28;;
14592;SDS011;7383;52.354;9.756;2022-11-20T16:28:58;8.48;;;7.68;;
14592;SDS011;7383;52.354;9.756;2022-11-20T16:31:25;8.43;;;7.55;;
14592;SDS011;7383;52.354;9.756;2022-11-20T16:33:52;8.88;;;7.78;;
14592;SDS011;7383;52.354;9.756;2022-11-20T16:36:20;8.90;;;8.00;;
14592;SDS011;7383;52.354;9.756;2022-11-20T16:38:53;9.15;;;8.25;;
14592;SDS011;7383;52.354;9.756;2022-11-20T16:41:20;8.80;;;7.90;;
14592;SDS011;7383;52.354;9.756;2022-11-20T16:43:48;9.75;;;8.85;;
14592;SDS011;7383;52.354;9.756;2022-11-20T16:46:42;9.27;;;8.32;;
14592;SDS011;7383;52.354;9.756;2022-11-20T16:49:22;12.90;;;11.70;;
14592;SDS011;7383;52.354;9.756;2022-11-20T16:51:52;10.10;;;8.88;;
14592;SDS011;7383;52.354;9.756;2022-11-20T16:54:20;10.73;;;9.63;;
14592;SDS011;7383;52.354;9.756;2022-11-20T16:56:49;9.68;;;8.80;;
14592;SDS011;7383;52.354;9.756;2022-11-20T17:02:09;9.90;;;8.90;;
14592;SDS011;7383;52.354;9.756;2022-11-20T17:04:36;11.23;;;10.13;;
14592;SDS011;7383;52.354;9.756;2022-11-20T17:07:03;11.15;;;9.98;;
14592;SDS011;7383;52.354;9.756;2022-11-20T17:09:32;11.25;;;10.13;;
14592;SDS011;7383;52.354;9.756;2022-11-20T17:11:58;10.32;;;9.32;;
14592;SDS011;7383;52.354;9.756;2022-11-20T17:14:25;11.20;;;10.10;;
14592;SDS011;7383;52.354;9.756;2022-11-20T17:16:52;10.70;;;9.65;;
14592;SDS011;7383;52.354;9.756;2022-11-20T17:19:18;11.43;;;10.32;;